Sponsor Message:
Civil Aviation Forum
My Starred Topics | Profile | New Topic | Forum Index | Help | Search 
Severe Weather KTPA-KPIE  
User currently offlineFfis34 From United States of America, joined Feb 2005, 318 posts, RR: 0
Posted (8 years 5 months 3 weeks 3 days 13 hours ago) and read 2054 times:

hey hey guys,

so i woke up this morning headed up to the local coffee shop, and it started to pour, thunder lighting and a slight 2 or 3 knot wind comeing from the west, so anyways, thinking oo hell its florida it will stop in 2 minutes...its now 2 30 im back home from school, and its been going ever since and it hasnt slacked at all, so does anyone know delays in TPA and delays into PIE


Brad


Chris, since we are in jail I need to say something to you. Dont drop the soap
7 replies: All unread, jump to last
 
User currently offline3201 From , joined Dec 1969, posts, RR:
Reply 1, posted (8 years 5 months 3 weeks 3 days 13 hours ago) and read 2034 times:

According to the FAA flight delay page, there's a ground delay program for arriving traffic due to the thunderstorms (as of 11:55 EST). You could check individual flights on either airline sites or one of the flight-trackers to see some individual flight impacts.

User currently offlineRp tpa From United States of America, joined Oct 1999, 852 posts, RR: 0
Reply 2, posted (8 years 5 months 3 weeks 3 days 11 hours ago) and read 1946 times:

Air Canada 902 (YYZ-TPA) diverted to FLL. Landed there at 1505, and waiting to continue to TPA. Latest departure time from FLL is 1630, but it's been pushed back a few times. The sky here is getting a little bit lighter now, just in time for sundown......LOL

User currently offlineLuvfa From United States of America, joined May 2005, 445 posts, RR: 5
Reply 3, posted (8 years 5 months 3 weeks 3 days 9 hours ago) and read 1862 times:

Our flight 780 STL-TPA landed 10 minutes late @ 12:45pm. But we held on the Tarmac until 4:30 pm as the ramp was closed and their was a shortage of gates. Its a mess here!

User currently offlineSwatpamike From United States of America, joined May 2004, 581 posts, RR: 0
Reply 4, posted (8 years 5 months 3 weeks 3 days 6 hours ago) and read 1799 times:

Hello all

It was the longest code red, Lightning over the field, I have ever seen in TPA 5 1/2 hours. WN cancelled about 15 flights.

Cheers

swatpamike


User currently offlineTPAnx From United States of America, joined Aug 2005, 1021 posts, RR: 0
Reply 5, posted (8 years 5 months 3 weeks 3 days 6 hours ago) and read 1773 times:

Airport spokesperson says 25 flights were diverted.
NWS reported 7.73 inches of rain for the day at TPA as of 4pm Eastern.
That's the fourth highest one day total. 13 inches where I live today.
There have been some evacuations because of flooding, and a good section of a store roof collapsed .
We have a break in the rain this evening, but more showers and thunderstorms are expected tonight as a cold front nears. While they won't train (one storm following another) rain with them is expected to be heavy.
Weather should improve Saturday afternoon...sunny and cool (62 degrees)
Sunday. But no shoveling required!  Wink
TPAnx



I read the news today..oh boy
User currently offlineTPAnx From United States of America, joined Aug 2005, 1021 posts, RR: 0
Reply 6, posted (8 years 5 months 3 weeks 3 days 5 hours ago) and read 1756 times:

Break from the rain appears to be over..I can hear thunder now.
Whole system seems to be sinking southward..so good luck to MIA,FLL, and
Fort Myers.
Good view of Florida radar here:
http://www.srh.noaa.gov/ridge/radar....duct=N0Z&overlay=11101111&loop=yes
TPAnx  raincloud 



I read the news today..oh boy
User currently offlineOPNLguy From , joined Dec 1969, posts, RR:
Reply 7, posted (8 years 5 months 3 weeks 3 days 3 hours ago) and read 1690 times:

The majority of the rain was from just before 1400z to about 2200z (about 8 hour's worth), with another brief shot just after 0400z...

KTPA 040553Z 18012G19KT 10SM SCT045 BKN070 18/17 A2980 RMK AO2 RAE28 SLP091 P0001 60006 T01830172 10183 20183 50005
KTPA 040453Z 18015G21KT 7SM -RA FEW009 BKN050 OVC100 18/17 A2981 RMK AO2 TSB15E40 SLP093 P0005 T01830172 402110161
KTPA 040441Z 18015G21KT 8SM -RA FEW025 BKN045 OVC060 18/17 A2981 RMK AO2 TSB15E40 P0004
KTPA 040419Z 16013KT 9SM -TSRA SCT028CB BKN060 OVC075 18/17 A2980 RMK AO2 TSB15 PRESFR OCNL LTGICCCCG TS S-SW MOV NE P0002
KTPA 040353Z 16008KT 10SM -RA BKN060 OVC100 18/17 A2982 RMK AO2 RAB46 SLP099 FRQ LTGIC DSNT S SW P0000 T01830172
KTPA 040253Z 13005KT 10SM FEW012 BKN080 OVC150 18/17 A2979 RMK AO2 SLP087 T01830167 58005
KTPA 040153Z 14007KT 10SM SCT055 BKN150 18/17 A2981 RMK AO2 SLP095 T01830172
KTPA 040142Z COR 13008KT 10SM FEW012 SCT055 BKN150 18/17 A2982 RMK AO2
KTPA 040123Z 14009G16KT 10SM BKN012 18/17 A2981 RMK AO2 BKN V SCT
KTPA 040053Z 14009KT 10SM BKN017 BKN028 OVC250 18/17 A2982 RMK AO2 SLP097 T01830172
KTPA 032353Z 14010KT 10SM FEW005 BKN018 OVC030 18/17 A2980 RMK AO2 RAB24E49 SLP092 P0000 60283 T01830167 10189 20167 53002
KTPA 032253Z 13010G17KT 10SM SCT008 OVC022 18/17 A2979 RMK AO2 RAE41 SLP088 SCT V BKN P0032 T01830172
KTPA 032232Z 14007G15KT 8SM -RA SCT006 OVC018 18/17 A2979 RMK AO2 P0031
KTPA 032205Z 13007KT 1/2SM R36L/4000VP6000FT -RA BR SCT006 BKN011 OVC020 18/18 A2978 RMK AO2 SFC VIS 1 1/2 P0019
KTPA 032153Z VRB05KT 1/2SM R36L/6000VP6000FT -RA BR FEW008 BKN020 OVC027 18/17 A2978 RMK AO2 SFC VIS 2 TSE23 SLP082 P0019 T01830172
KTPA 032123Z 13009KT 2SM R36L/4000VP6000FT -RA BR FEW012 BKN024 OVC045 18/18 A2978 RMK AO2 TSE23 P0008
KTPA 032053Z COR 10005KT 10SM -TSRA FEW007 BKN012 OVC020CB 18/18 A2980 RMK AO2 PRESRR SLP090 OCNL LTGIC W-N TS W-N MOV NE P0002 60232 T01830178 55017
KTPA 032035Z 09003KT 10SM -TSRA BR FEW007 OVC020CB 19/18 A2978 RMK AO2 FRQ LTGICCCCG W-N TS W-N MOV NE P0001
KTPA 032008Z 12003KT 3SM -TSRA BR FEW010 OVC032CB 18/17 A2978 RMK AO2 SFC VIS 10 FRQ LTGICCCCG ALQDS TS ALQDS MOV NE VIS N 1 1/2 P0000
KTPA 032003Z 11004KT 3SM -TSRA BR BKN010 OVC022CB 18/18 A2978 RMK AO2 SFC VIS 10 OCNL LTGICCCCG ALQDS TS ALQDS MOV NE VIS N 1 P0000
KTPA 031953Z 00000KT 1/2SM R36L/1800VP6000FT +TSRA FG BKN010 OVC022CB 18/18 A2979 RMK AO2 SLP087 OCNL LTGICCCCG ALQDS TS ALQDS MOV NE P0103 T01830178
KTPA 031853Z 29007KT 1/2SM R36L/1800VP6000FT +TSRA FG BKN007 OVC018CB 19/18 A2980 RMK AO2 PK WND 30034/1841 SFC VIS 3/4 SLP090 FRQ LTGICCCCG ALQDS TS ALQDS MOV NE P0127 T01890178 $
KTPA 031846Z 34009G34KT 310V020 1/4SM R36L/1800V4000FT +TSRA BR BKN007 OVC018CB 18/17 A2982
KTPA 031839Z 26021G27KT 1/2SM R36L/2400VP6000FT +TSRA BR FEW007 OVC016CB 18/18 A2982 RMK AO2 PK WND 26027/1837 SFC VIS 1 FRQ LTGICCCCG ALQDS TS ALQDS MOV NE P0053 $
KTPA 031815Z COR 28007KT 1SM R36L/5500VP6000FT -TSRA BR SCT004 OVC020CB 18/18 A2983 RMK AO2 FRQ LTGICCCCG ALQDS TS ALQDS MOV NE P0022 $
KTPA 031753Z 20007KT 1/2SM R36L/4000V6000FT TSRA FG BKN004 OVC014CB 17/16 A2985 RMK AO2 SLP107 FRQ LTGICCCCG ALQDS TS ALQDS MOV NE P0109 60540 T01670161 10211 20161 56019 $
KTPA 031653Z 20014G22KT 1/2SM R36L/3500VP6000FT +TSRA FG BKN004 OVC014CB 18/18 A2987 RMK AO2 SLP116 CONS LTGICCCCG ALQDS TS ALQDS MOV NE P0133 T01830178 $
KTPA 031553Z 14006KT 1/2SM R36L/2200VP6000FT TSRA BKN004 OVC014CB 18/18 A2987 RMK AO2 SLP113 CONS LTGICCCCG ALQDS TS ALQDS MOV NE P0183 T01780178 $
KTPA 031509Z VRB05KT 1/4SM R36L/2400VP6000FT +TSRA BKN004 OVC014CB 18/17 A2988 RMK AO2 CONS LTGICCCCG OHD AND ALQDS TS OHD AND ALQDS MOV NE P0061
KTPA 031453Z 29009KT 1/2SM R36L/3000VP6000FT TSRA BKN004 OVC014CB 18/17 A2990 RMK AO2 TSB04RAB04 SLP126 CONS LTGICCCCG SW-OHD-NE TS SW-OHD-NE MOV NE P0115 60115 T01780167 53016
KTPA 031431Z 34015G22KT 1/4SM R36L/2000V5500FT +TSRA BKN004 OVC038CB 18/17 A2989 RMK AO2 TSB04RAB04 FRQ LTGICCCCG SW-OHD-NE TS SW-OHD-NE MOV NE P0065
KTPA 031422Z 35012KT 1SM R36L/2000VP6000FT TSRA BKN007 OVC038CB 18/17 A2991 RMK AO2 TSB04RAB04 FRQ LTGICCCCG SW-OHD-NE TS SW-OHD-NE MOV NE P0007
KTPA 031404Z 36015G22KT 3SM -TSRA BKN007 OVC038CB 18/16 A2989 RMK AO2 TSB04RAB04 OCNL LTGICCC SW-N TS SW-N MOV NE CB N-NE MOV NE P0000
KTPA 031353Z 34012G25KT 5SM BR BKN007 OVC038CB 18/16 A2987 RMK AO2 SLP115 CB W-NE MOV NE VCSH W-N VIS LWR W-N T01780161
KTPA 031336Z 02011KT 5SM BR BKN007 OVC038CB 19/17 A2989 RMK AO2 CB NW-NE MOV NE VCSH NW VIS LWR N
KTPA 031253Z COR 14007KT 5SM BR SCT017 BKN038CB OVC150 21/19 A2985 RMK AO2 SLP108 CB NW MOV NE VIS LWR N T02060194


Top Of Page
Forum Index

This topic is archived and can not be replied to any more.

Printer friendly format

Similar topics:More similar topics...
MIA And FLL Severe Weather Today posted Mon May 15 2006 23:07:48 by FLAIRPORT
Severe Weather At Airports posted Sun Mar 10 2002 18:14:03 by Canadian747
Severe Weather/Diversions? posted Wed Mar 7 2001 23:58:41 by Boeing757fan
Severe MDW Weather Picks On ATA ;-) posted Thu Jul 22 2004 08:36:33 by Vanguard737
Severe Hail Damage On Boeing 727 posted Tue Dec 19 2006 00:51:41 by Jawed
PIREP: Severe Turbulence @ FL360 Over CA (12/18) posted Mon Dec 18 2006 23:35:02 by 777fan
JAA Forced To Compensate Weather Delay In Taiwan posted Wed Dec 13 2006 08:02:35 by Jimyvr
Bad Weather Midwest 11/29-30 posted Thu Nov 30 2006 05:57:49 by Hiflyer
EWR, Is The Weather Pretty Bad Right Now? posted Sun Nov 12 2006 22:33:05 by TK787
Questions About Weather Over Great Lakes Region posted Thu Oct 12 2006 01:36:12 by Phxflyer